Time;durP1;ratioP1;P1;durP2;ratioP2;P2;SDS_P1;SDS_P2;PMS_P1;PMS_P2;Temp;Humidity;BMP_temperature;BMP_pressure;BME280_temperature;BME280_humidity;BME280_pressure;Samples;Min_cycle;Max_cycle;Signal;HPM_P1;HPM_P2
2023/09/09 00:01:44;;;;;;;16.35;14.85;;;;;;;;;;6250594;22;20020;-96
2023/09/09 00:04:10;;;;;;;16.65;15.05;;;;;;;;;;6248107;22;20020;-96
2023/09/09 00:06:36;;;;;;;17.48;15.95;;;;;;;;;;6245581;22;20066;-96
2023/09/09 00:09:04;;;;;;;17.40;15.70;;;;;;;;;;6259313;22;20016;-96
2023/09/09 00:11:33;;;;;;;16.05;14.65;;;;;;;;;;6236839;23;20055;-96
2023/09/09 00:13:59;;;;;;;16.83;15.23;;;;;;;;;;6216043;23;20039;-96
2023/09/09 00:16:25;;;;;;;15.90;14.50;;;;;;;;;;6242932;23;20016;-96
2023/09/09 00:18:52;;;;;;;16.75;15.15;;;;;;;;;;6206075;23;20076;-96
2023/09/09 00:21:20;;;;;;;17.85;16.13;;;;;;;;;;6206811;23;20016;-96
2023/09/09 00:23:46;;;;;;;;;;;;;;;;;;6202906;23;20103;-96
2023/09/09 00:26:12;;;;;;;19.65;17.58;;;;;;;;;;6243071;23;19900;-96
2023/09/09 00:28:38;;;;;;;17.17;15.57;;;;;;;;;;6221578;23;20004;-96
2023/09/09 00:31:04;;;;;;;18.88;17.08;;;;;;;;;;6221516;23;20024;-96
2023/09/09 00:33:31;;;;;;;18.33;16.45;;;;;;;;;;6240476;23;20016;-96
2023/09/09 00:36:00;;;;;;;19.17;17.38;;;;;;;;;;6199052;23;20023;-96
2023/09/09 00:38:26;;;;;;;20.75;18.65;;;;;;;;;;6227405;23;20027;-96
2023/09/09 00:41:12;;;;;;;20.58;18.67;;;;;;;;;;6202833;23;20437;-96
2023/09/09 00:43:38;;;;;;;18.65;16.92;;;;;;;;;;6201622;23;20020;-96
2023/09/09 00:46:05;;;;;;;20.07;18.37;;;;;;;;;;6202300;23;20016;-96
2023/09/09 00:48:31;;;;;;;19.77;17.98;;;;;;;;;;6229573;23;20083;-96
2023/09/09 00:50:57;;;;;;;20.65;17.50;;;;;;;;;;6243725;23;20409;-96
2023/09/09 00:53:24;;;;;;;18.45;16.70;;;;;;;;;;6221454;23;20030;-96
2023/09/09 00:55:51;;;;;;;18.58;16.65;;;;;;;;;;6247049;22;20020;-96
2023/09/09 00:58:17;;;;;;;21.45;19.45;;;;;;;;;;6245773;23;20024;-96
2023/09/09 01:00:46;;;;;;;21.83;19.65;;;;;;;;;;6218257;23;20040;-96
2023/09/09 01:03:13;;;;;;;20.45;18.38;;;;;;;;;;6235689;23;20046;-96
2023/09/09 01:05:39;;;;;;;20.60;18.75;;;;;;;;;;6233859;23;20108;-96
2023/09/09 01:08:05;;;;;;;23.05;20.75;;;;;;;;;;6234238;23;20008;-96
2023/09/09 01:10:32;;;;;;;20.25;18.08;;;;;;;;;;6223755;22;20023;-96
2023/09/09 01:12:58;;;;;;;21.35;19.27;;;;;;;;;;6267411;22;20433;-96
2023/09/09 01:15:24;;;;;;;22.83;20.73;;;;;;;;;;6246684;22;20016;-96
2023/09/09 01:17:52;;;;;;;20.27;18.42;;;;;;;;;;6268885;22;20030;-96
2023/09/09 01:20:19;;;;;;;;;;;;;;;;;;6239855;22;20067;-96
2023/09/09 01:22:48;;;;;;;21.10;19.23;;;;;;;;;;6232912;22;19919;-96
2023/09/09 01:25:16;;;;;;;23.00;20.40;;;;;;;;;;6257780;22;20126;-96
2023/09/09 01:27:42;;;;;;;21.38;19.27;;;;;;;;;;6228876;22;20012;-96
2023/09/09 01:30:11;;;;;;;21.80;19.83;;;;;;;;;;6230888;22;20086;-96
2023/09/09 01:32:37;;;;;;;21.90;19.73;;;;;;;;;;6259913;22;20011;-96
2023/09/09 01:35:04;;;;;;;22.50;20.30;;;;;;;;;;6256548;22;20059;-96
2023/09/09 01:37:31;;;;;;;22.83;20.80;;;;;;;;;;6231239;22;20023;-96
2023/09/09 01:40:09;;;;;;;22.25;20.15;;;;;;;;;;6238659;22;20012;-96
2023/09/09 01:42:35;;;;;;;22.55;20.27;;;;;;;;;;6245073;22;20019;-96
2023/09/09 01:45:01;;;;;;;20.98;18.98;;;;;;;;;;6245967;22;20012;-96
2023/09/09 01:47:28;;;;;;;21.63;19.63;;;;;;;;;;6250879;22;20059;-96
2023/09/09 01:49:54;;;;;;;21.75;19.75;;;;;;;;;;6268717;22;20020;-96
2023/09/09 01:52:20;;;;;;;21.20;19.20;;;;;;;;;;6239304;22;20031;-96
2023/09/09 01:54:46;;;;;;;21.40;19.50;;;;;;;;;;6269480;22;20023;-96
2023/09/09 01:57:14;;;;;;;20.88;18.83;;;;;;;;;;6257567;22;20141;-96
2023/09/09 01:59:40;;;;;;;21.00;18.80;;;;;;;;;;6264286;22;20019;-96
2023/09/09 02:02:06;;;;;;;20.42;18.42;;;;;;;;;;6263070;22;20129;-96
2023/09/09 02:04:33;;;;;;;22.00;19.83;;;;;;;;;;6231756;22;20019;-96
2023/09/09 02:06:59;;;;;;;22.88;20.77;;;;;;;;;;6235201;22;20019;-96
2023/09/09 02:09:25;;;;;;;21.27;19.17;;;;;;;;;;6233626;22;20020;-96
2023/09/09 02:11:51;;;;;;;20.80;18.80;;;;;;;;;;6253179;22;20032;-96
2023/09/09 02:14:17;;;;;;;20.90;19.00;;;;;;;;;;6231088;22;20448;-96
2023/09/09 02:16:43;;;;;;;19.10;17.35;;;;;;;;;;6229096;22;20016;-96
2023/09/09 02:19:09;;;;;;;21.00;19.08;;;;;;;;;;6231191;22;20090;-96
2023/09/09 02:21:36;;;;;;;21.27;19.17;;;;;;;;;;6230909;22;20095;-96
2023/09/09 02:24:02;;;;;;;19.40;17.50;;;;;;;;;;6259170;22;20146;-96
2023/09/09 02:26:28;;;;;;;21.95;20.02;;;;;;;;;;6257522;22;20019;-96
2023/09/09 02:28:57;;;;;;;25.15;22.58;;;;;;;;;;6236756;22;20024;-96
2023/09/09 02:31:24;;;;;;;23.42;21.27;;;;;;;;;;6235773;22;20019;-96
2023/09/09 02:33:50;;;;;;;20.80;18.85;;;;;;;;;;6230482;22;20023;-96
2023/09/09 02:36:16;;;;;;;24.83;22.48;;;;;;;;;;6257373;22;20012;-96
2023/09/09 02:38:42;;;;;;;24.23;22.05;;;;;;;;;;6229963;22;20042;-96
2023/09/09 02:41:08;;;;;;;23.38;21.10;;;;;;;;;;6254792;22;20012;-96
2023/09/09 02:43:36;;;;;;;22.25;20.30;;;;;;;;;;6239726;22;20020;-96
2023/09/09 02:46:02;;;;;;;21.88;19.98;;;;;;;;;;6261548;22;20086;-96
2023/09/09 02:48:29;;;;;;;24.45;22.15;;;;;;;;;;6242888;22;20003;-96
2023/09/09 02:50:55;;;;;;;23.40;21.08;;;;;;;;;;6256370;22;20497;-96
2023/09/09 02:53:21;;;;;;;21.75;19.85;;;;;;;;;;6227841;22;20055;-96
2023/09/09 02:55:48;;;;;;;21.23;19.23;;;;;;;;;;6252982;22;20012;-96
2023/09/09 02:58:17;;;;;;;21.73;19.73;;;;;;;;;;6229138;22;20050;-96
2023/09/09 03:00:43;;;;;;;22.30;20.27;;;18.00;99.90;;;;;;6254655;22;20087;-96
2023/09/09 03:03:08;;;;;;;22.70;20.52;;;17.70;99.90;;;;;;6229539;22;20015;-96
2023/09/09 03:05:38;;;;;;;23.35;20.90;;;;;;;;;;6227844;22;20012;-96
2023/09/09 03:08:06;;;;;;;23.73;21.45;;;;;;;;;;6229192;22;20012;-96
2023/09/09 03:10:34;;;;;;;21.27;19.25;;;;;;;;;;6240738;23;20048;-96
2023/09/09 03:13:05;;;;;;;22.52;20.42;;;;;;;;;;6198431;23;20019;-96
2023/09/09 03:15:34;;;;;;;24.50;22.05;;;;;;;;;;6200848;23;20047;-96
2023/09/09 03:18:04;;;;;;;22.45;20.35;;;;;;;;;;6201157;23;20016;-96
2023/09/09 03:20:33;;;;;;;23.35;21.17;;;;;;;;;;6225387;23;20011;-96
2023/09/09 03:23:02;;;;;;;22.52;20.48;;;;;;;;;;6225739;23;20031;-96
2023/09/09 03:25:29;;;;;;;23.23;21.00;;;;;;;;;;6215440;23;20019;-96
2023/09/09 03:27:56;;;;;;;22.02;20.13;;;;;;;;;;6218622;23;20012;-96
2023/09/09 03:30:23;;;;;;;23.05;20.95;;;;;;;;;;6230156;23;20012;-96
2023/09/09 03:32:49;;;;;;;24.23;21.83;;;;;;;;;;6204935;23;20445;-96
2023/09/09 03:35:16;;;;;;;25.92;23.60;;;;;;;;;;6200716;23;20468;-96
2023/09/09 03:37:43;;;;;;;25.00;22.75;;;;;;;;;;6227839;23;20023;-96
2023/09/09 03:40:12;;;;;;;25.85;23.58;;;;;;;;;;6217149;23;20007;-96
2023/09/09 03:42:41;;;;;;;29.27;26.67;;;;;;;;;;6242466;23;20071;-96
2023/09/09 03:45:12;;;;;;;30.13;27.02;;;;;;;;;;6206690;23;20457;-96
2023/09/09 03:47:41;;;;;;;29.83;27.13;;;;;;;;;;6209447;23;20020;-96
2023/09/09 03:50:13;;;;;;;35.35;32.08;;;;;;;;;;6213607;23;20016;-96
2023/09/09 03:52:42;;;;;;;33.17;30.17;;;;;;;;;;6231111;23;20026;-96
2023/09/09 03:55:09;;;;;;;34.67;31.50;;;;;;;;;;6200033;23;20012;-96
2023/09/09 03:57:39;;;;;;;40.80;37.10;;;;;;;;;;6200687;23;20016;-96
2023/09/09 04:00:09;;;;;;;35.28;32.08;;;;;;;;;;6210491;23;20016;-96
2023/09/09 04:02:39;;;;;;;36.80;33.28;;;;;;;;;;6236291;23;20248;-96
2023/09/09 04:05:08;;;;;;;32.80;29.65;;;;;;;;;;6219075;23;20008;-96
2023/09/09 04:07:37;;;;;;;35.65;32.20;;;;;;;;;;6219617;23;20015;-96
2023/09/09 04:10:08;;;;;;;35.90;32.13;;;;;;;;;;6240493;22;20336;-96
2023/09/09 04:12:36;;;;;;;35.28;31.83;;;;;;;;;;6232263;22;20024;-96
2023/09/09 04:15:02;;;;;;;36.40;32.97;;;;;;;;;;6230773;22;20520;-96
2023/09/09 04:17:28;;;;;;;32.85;29.85;;;;;;;;;;6245918;22;20016;-96
2023/09/09 04:19:56;;;;;;;33.83;30.48;;;;;;;;;;6246605;22;20042;-96
2023/09/09 04:22:26;;;;;;;33.42;30.23;;;;;;;;;;6229790;22;20012;-96
2023/09/09 04:24:56;;;;;;;31.67;28.83;;;;;;;;;;6228141;22;20019;-95
2023/09/09 04:27:24;;;;;;;30.38;27.58;;;;;;;;;;6226702;22;20065;-96
2023/09/09 04:29:54;;;;;;;31.85;27.90;;;;;;;;;;6252684;22;20019;-96
2023/09/09 04:32:22;;;;;;;30.45;27.35;;;;;;;;;;6230099;22;20008;-96
2023/09/09 04:34:48;;;;;;;28.92;26.17;;;;;;;;;;6233153;22;20015;-96
2023/09/09 04:37:16;;;;;;;28.63;25.90;;;;;;;;;;6235580;22;20031;-96
2023/09/09 04:39:44;;;;;;;31.23;28.27;;;;;;;;;;6260763;22;20325;-96
2023/09/09 04:42:12;;;;;;;30.33;27.60;;;;;;;;;;6252925;22;20018;-96
2023/09/09 04:44:42;;;;;;;31.98;29.17;;;;;;;;;;6227020;22;20019;-96
2023/09/09 04:47:11;;;;;;;34.08;30.83;;;;;;;;;;6254419;22;20023;-96
2023/09/09 04:49:37;;;;;;;28.95;26.30;;;;;;;;;;6254712;22;20012;-96
2023/09/09 04:52:03;;;;;;;32.50;29.45;;;;;;;;;;6228755;22;20086;-96
2023/09/09 04:54:29;;;;;;;29.65;27.08;;;;;;;;;;6229571;22;20011;-96
2023/09/09 04:56:55;;;;;;;31.52;28.42;;;;;;;;;;6230314;22;20030;-96
2023/09/09 04:59:22;;;;;;;35.22;31.75;;;;;;;;;;6232297;22;20065;-96
2023/09/09 05:01:48;;;;;;;36.53;33.13;;;;;;;;;;6260266;22;20043;-95
2023/09/09 05:04:14;;;;;;;33.20;30.15;;;;;;;;;;6239350;22;20012;-96
2023/09/09 05:06:40;;;;;;;32.35;29.40;;;;;;;;;;6234667;22;20016;-96
2023/09/09 05:09:07;;;;;;;31.85;28.92;;;;;;;;;;6236308;22;20018;-96
2023/09/09 05:11:36;;;;;;;31.05;28.25;;;;;;;;;;6259044;22;20023;-96
2023/09/09 05:14:03;;;;;;;30.77;27.88;;;;;;;;;;6264788;22;20018;-96
2023/09/09 05:16:36;;;;;;;30.92;27.85;;;;;;;;;;6265259;22;20063;-96
2023/09/09 05:19:08;;;;;;;31.60;28.67;;;;;;;;;;6251249;22;20026;-96
2023/09/09 05:21:37;;;;;;;33.08;29.98;;;;;;;;;;6235831;22;20091;-96
2023/09/09 05:24:13;;;;;;;31.85;28.95;;;;;;;;;;6257716;22;20019;-96
2023/09/09 05:26:42;;;;;;;32.85;29.85;;;;;;;;;;6238496;22;19999;-96
2023/09/09 05:29:11;;;;;;;33.97;30.65;;;;;;;;;;6264406;22;20022;-96
2023/09/09 05:31:39;;;;;;;34.60;31.38;;;;;;;;;;6242442;22;20069;-96
2023/09/09 05:34:06;;;;;;;36.00;32.70;;;;;;;;;;6259806;22;20015;-96
2023/09/09 05:36:32;;;;;;;38.13;34.20;;;17.30;99.90;;;;;;6231918;22;20026;-96
2023/09/09 05:38:59;;;;;;;37.08;33.42;;;;;;;;;;6233102;22;20015;-96
2023/09/09 05:41:32;;;;;;;37.90;34.15;;;;;;;;;;6274669;22;19995;-96
2023/09/09 05:44:00;;;;;;;37.72;34.10;;;;;;;;;;6276565;22;20054;-96
2023/09/09 05:46:26;;;;;;;37.28;33.88;;;;;;;;;;6250075;22;20022;-96
2023/09/09 05:48:54;;;;;;;34.00;30.83;;;;;;;;;;6246618;22;20010;-96
2023/09/09 05:51:22;;;;;;;34.90;31.85;;;;;;;;;;6270329;22;20023;-96
2023/09/09 05:53:51;;;;;;;35.22;31.73;;;;;;;;;;6240550;22;20090;-96
2023/09/09 05:56:17;;;;;;;34.00;30.70;;;;;;;;;;6241530;22;20015;-96
2023/09/09 05:58:46;;;;;;;35.50;32.08;;;;;;;;;;6245618;22;20012;-96
2023/09/09 06:01:12;;;;;;;34.42;31.23;;;18.60;99.90;;;;;;6267266;22;20008;-95
2023/09/09 06:03:38;;;;;;;35.50;31.92;;;19.50;99.90;;;;;;6254442;22;20368;-95
2023/09/09 06:06:04;;;;;;;32.10;29.05;;;19.70;99.90;;;;;;6253825;22;20008;-96
2023/09/09 06:08:30;;;;;;;32.90;29.67;;;20.40;99.90;;;;;;6251546;22;20026;-96
2023/09/09 06:10:56;;;;;;;31.38;28.48;;;21.30;99.90;;;;;;6224927;22;20015;-96
2023/09/09 06:13:22;;;;;;;30.70;28.00;;;22.30;99.90;;;;;;6225565;22;20098;-95
2023/09/09 06:15:47;;;;;;;32.22;29.20;;;22.40;99.90;;;;;;6226026;22;20495;-95
2023/09/09 06:18:13;;;;;;;28.08;25.50;;;22.80;99.90;;;;;;6228231;22;20437;-96
2023/09/09 06:20:45;;;;;;;29.98;27.08;;;23.50;99.90;;;;;;6259402;22;20019;-96
